Time;durP1;ratioP1;P1;durP2;ratioP2;P2;SDS_P1;SDS_P2;PMS_P1;PMS_P2;Temp;Humidity;BMP_temperature;BMP_pressure;BME280_temperature;BME280_humidity;BME280_pressure;Samples;Min_cycle;Max_cycle;Signal;HPM_P1;HPM_P2
2022/09/29 00:01:29;;;;;;;5.60;5.20;;;;;;;;;;5060520;28;24433;-46
2022/09/29 00:03:54;;;;;;;5.60;5.20;;;;;;;;;;5061767;28;24515;-46
2022/09/29 00:06:19;;;;;;;5.70;5.30;;;;;;;;;;5060131;28;24422;-46
2022/09/29 00:08:45;;;;;;;5.70;5.30;;;;;;;;;;5052696;28;24846;-46
2022/09/29 00:11:11;;;;;;;5.78;5.38;;;;;;;;;;5061617;28;24430;-48
2022/09/29 00:13:36;;;;;;;5.40;5.10;;;;;;;;;;5061996;28;24423;-46
2022/09/29 00:16:02;;;;;;;5.45;5.10;;;;;;;;;;5062948;28;24429;-47
2022/09/29 00:18:28;;;;;;;5.50;5.10;;;;;;;;;;5056321;28;24415;-46
2022/09/29 00:21:01;;;;;;;5.30;5.00;;;;;;;;;;5058027;28;24414;-47
2022/09/29 00:23:27;;;;;;;5.10;4.80;;;;;;;;;;5060705;28;24539;-46
2022/09/29 00:26:02;;;;;;;5.18;4.85;;;;;;;;;;5061338;28;24509;-46
2022/09/29 00:28:28;;;;;;;4.70;4.40;;;;;;;;;;5054413;28;24427;-47
2022/09/29 00:30:53;;;;;;;6.20;5.70;;;;;;;;;;5058099;28;24437;-47
2022/09/29 00:33:18;;;;;;;5.00;4.70;;;;;;;;;;5060973;28;25137;-47
2022/09/29 00:35:43;;;;;;;5.07;4.67;;;;;;;;;;5058067;28;24437;-46
2022/09/29 00:38:08;;;;;;;5.80;5.40;;;;;;;;;;5060505;28;24557;-47
2022/09/29 00:40:34;;;;;;;5.10;4.80;;;;;;;;;;5059879;28;24517;-47
2022/09/29 00:42:59;;;;;;;4.93;4.63;;;;;;;;;;5064627;28;24785;-47
2022/09/29 00:45:25;;;;;;;6.70;6.20;;;;;;;;;;5061810;28;24534;-46
2022/09/29 00:48:06;;;;;;;5.20;4.90;;;;;;;;;;5055933;28;24430;-46
2022/09/29 00:50:34;;;;;;;4.68;4.38;;;;;;;;;;5052591;28;24441;-48
2022/09/29 00:53:01;;;;;;;5.03;4.72;;;;;;;;;;5062803;28;24431;-46
2022/09/29 00:55:32;;;;;;;4.80;4.50;;;;;;;;;;5062208;28;24411;-47
2022/09/29 00:58:02;;;;;;;5.30;4.90;;;;;;;;;;5057372;28;24472;-46
2022/09/29 01:00:27;;;;;;;4.82;4.53;;;;;;;;;;5056172;28;24460;-46
2022/09/29 01:02:56;;;;;;;5.00;4.70;;;;;;;;;;5053159;28;24465;-46
2022/09/29 01:05:25;;;;;;;4.78;4.47;;;;;;;;;;5056893;28;25086;-47
2022/09/29 01:07:50;;;;;;;5.20;4.90;;;;;;;;;;5059576;28;24465;-46
2022/09/29 01:10:16;;;;;;;4.80;4.40;;;;;;;;;;5059564;28;24466;-47
2022/09/29 01:12:42;;;;;;;4.30;4.07;;;;;;;;;;5060843;28;24459;-46
2022/09/29 01:15:08;;;;;;;4.50;4.20;;;;;;;;;;5058819;28;24411;-46
2022/09/29 01:17:33;;;;;;;4.40;4.10;;;;;;;;;;5061131;28;24507;-47
2022/09/29 01:20:12;;;;;;;4.60;4.30;;;;;;;;;;5064813;28;24422;-48
2022/09/29 01:22:52;;;;;;;4.30;4.00;;;;;;;;;;5061677;28;24419;-47
2022/09/29 01:25:28;;;;;;;5.00;4.60;;;;;;;;;;5060823;28;25045;-46
2022/09/29 01:27:57;;;;;;;4.10;3.90;;;;;;;;;;5057934;28;24431;-46
2022/09/29 01:30:22;;;;;;;4.10;3.90;;;;;;;;;;5053023;28;24467;-46
2022/09/29 01:33:06;;;;;;;4.80;4.50;;;;;;;;;;5061162;28;24521;-47
2022/09/29 01:35:37;;;;;;;4.60;4.30;;;;;;;;;;5059751;28;24855;-46
2022/09/29 01:38:09;;;;;;;4.70;4.40;;;;;;;;;;5055221;28;24419;-47
2022/09/29 01:40:43;;;;;;;4.20;4.00;;;;;;;;;;5063633;28;24469;-47
2022/09/29 01:43:14;;;;;;;4.40;4.10;;;;;;;;;;5057329;28;24425;-47
2022/09/29 01:45:52;;;;;;;4.70;4.40;;;;;;;;;;5060188;28;24431;-46
2022/09/29 01:48:21;;;;;;;4.70;4.33;;;;;;;;;;5060095;28;24422;-46
2022/09/29 01:50:48;;;;;;;4.50;4.20;;;;;;;;;;5059744;28;24769;-47
2022/09/29 01:53:19;;;;;;;4.90;4.60;;;;;;;;;;5058537;28;25545;-47
2022/09/29 01:55:47;;;;;;;4.40;4.10;;;;;;;;;;5059514;28;24508;-47
2022/09/29 01:58:16;;;;;;;4.40;4.10;;;;;;;;;;5063662;28;24410;-47
2022/09/29 02:00:45;;;;;;;4.33;4.10;;;;;;;;;;5054447;28;24458;-47
2022/09/29 02:03:13;;;;;;;4.38;4.07;;;;;;;;;;5061448;28;24427;-46
2022/09/29 02:05:42;;;;;;;4.20;3.90;;;;;;;;;;5063170;28;24497;-47
2022/09/29 02:08:13;;;;;;;4.70;4.40;;;;;;;;;;5056193;28;24426;-46
2022/09/29 02:10:40;;;;;;;4.40;4.10;;;;;;;;;;5054517;28;24447;-47
2022/09/29 02:13:08;;;;;;;5.20;4.90;;;;;;;;;;5055448;28;24996;-46
2022/09/29 02:15:35;;;;;;;5.37;5.07;;;;;;;;;;5062125;28;24481;-46
2022/09/29 02:18:04;;;;;;;4.53;4.22;;;;;;;;;;5060744;28;24464;-46
2022/09/29 02:20:30;;;;;;;4.90;4.60;;;;;;;;;;5061557;28;24431;-45
2022/09/29 02:22:55;;;;;;;5.38;5.07;;;;;;;;;;5052440;28;24473;-45
2022/09/29 02:25:21;;;;;;;5.87;5.50;;;;;;;;;;5063581;28;24504;-45
2022/09/29 02:27:47;;;;;;;5.40;5.00;;;;;;;;;;5060566;28;24513;-45
2022/09/29 02:30:12;;;;;;;5.43;5.03;;;;;;;;;;5066501;28;24457;-46
2022/09/29 02:32:37;;;;;;;5.63;5.23;;;;;;;;;;5064446;28;24513;-45
2022/09/29 02:35:07;;;;;;;4.87;4.57;;;;;;;;;;5065261;28;24840;-47
2022/09/29 02:37:53;;;;;;;6.00;5.60;;;;;;;;;;5055100;28;24964;-47
2022/09/29 02:40:38;;;;;;;5.43;5.03;;;;;;;;;;5062919;28;24414;-46
2022/09/29 02:43:06;;;;;;;5.50;5.10;;;;;;;;;;5066572;28;24433;-46
2022/09/29 02:46:07;;;;;;;5.70;5.30;;;;;;;;;;5065324;28;24506;-46
2022/09/29 02:48:38;;;;;;;5.60;5.20;;;;;;;;;;5006542;28;24428;-46
2022/09/29 02:51:22;;;;;;;5.50;5.10;;;;;;;;;;5052512;28;25051;-47
2022/09/29 02:53:47;;;;;;;5.20;4.90;;;;;;;;;;5059963;28;24430;-46
2022/09/29 02:56:21;;;;;;;5.18;4.88;;;;;;;;;;5057813;28;24714;-47
2022/09/29 02:58:58;;;;;;;5.53;5.13;;;;;;;;;;5067328;28;24551;-46
2022/09/29 03:01:23;;;;;;;5.00;4.70;;;;;;;;;;5061740;28;24468;-47
2022/09/29 03:03:48;;;;;;;5.90;5.50;;;;;;;;;;5065471;28;24824;-51
2022/09/29 03:06:15;;;;;;;4.90;4.60;;;;;;;;;;5060953;28;24418;-46
2022/09/29 03:08:40;;;;;;;4.90;4.60;;;;;;;;;;5066532;28;24446;-47
2022/09/29 03:11:05;;;;;;;4.83;4.53;;;;;;;;;;5058266;28;24420;-46
2022/09/29 03:13:30;;;;;;;4.80;4.50;;;;;;;;;;5063368;28;24430;-46
2022/09/29 03:15:55;;;;;;;4.90;4.60;;;;;;;;;;5066779;28;24483;-45
2022/09/29 03:18:22;;;;;;;5.10;4.80;;;;;;;;;;5066501;28;24438;-46
2022/09/29 03:20:47;;;;;;;4.72;4.43;;;;;;;;;;5060035;28;25266;-45
2022/09/29 03:23:12;;;;;;;5.43;5.03;;;;;;;;;;5063938;28;24449;-45
2022/09/29 03:25:38;;;;;;;5.00;4.70;;;;;;;;;;5063332;28;24426;-46
2022/09/29 03:28:03;;;;;;;5.00;4.70;;;;;;;;;;5060357;28;24879;-46
2022/09/29 03:30:28;;;;;;;4.93;4.63;;;;;;;;;;5060510;28;24427;-46
2022/09/29 03:32:53;;;;;;;4.97;4.67;;;;;;;;;;5063431;28;24437;-46
2022/09/29 03:35:18;;;;;;;4.60;4.30;;;;;;;;;;5066901;28;24438;-46
2022/09/29 03:37:43;;;;;;;4.40;4.10;;;;;;;;;;5063881;28;24692;-46
2022/09/29 03:40:09;;;;;;;5.03;4.70;;;;;;;;;;5052477;28;24423;-47
2022/09/29 03:42:34;;;;;;;5.40;5.00;;;;;;;;;;5060500;28;24433;-47
2022/09/29 03:44:59;;;;;;;5.00;4.60;;;;;;;;;;5064589;28;24423;-46
2022/09/29 03:47:24;;;;;;;4.82;4.53;;;;;;;;;;5065148;28;24414;-47
2022/09/29 03:49:50;;;;;;;4.70;4.40;;;;;;;;;;5067687;28;24423;-47
2022/09/29 03:52:15;;;;;;;4.33;4.03;;;;;;;;;;5067025;28;24999;-46
2022/09/29 03:54:40;;;;;;;4.53;4.22;;;;;;;;;;5067269;28;24467;-47
2022/09/29 03:57:05;;;;;;;5.30;4.90;;;;;;;;;;5062959;28;25152;-48
2022/09/29 03:59:30;;;;;;;5.07;4.77;;;;;;;;;;5054603;28;24549;-46
2022/09/29 04:01:56;;;;;;;5.10;4.70;;;;;;;;;;5067107;28;24876;-47
2022/09/29 04:04:21;;;;;;;4.80;4.50;;;;;;;;;;5060647;28;24492;-47
2022/09/29 04:06:46;;;;;;;4.90;4.60;;;;;;;;;;5064462;28;24808;-48
2022/09/29 04:09:11;;;;;;;4.70;4.40;;;;;;;;;;5066014;28;24976;-47
2022/09/29 04:11:36;;;;;;;5.17;4.77;;;;;;;;;;5064051;28;24459;-46
2022/09/29 04:14:02;;;;;;;6.07;5.67;;;;;;;;;;5063375;28;24422;-46
2022/09/29 04:16:27;;;;;;;5.00;4.70;;;;;;;;;;5062709;28;24473;-46
2022/09/29 04:18:52;;;;;;;5.47;5.07;;;;;;;;;;5066767;28;24398;-46
2022/09/29 04:21:17;;;;;;;4.90;4.60;;;;;;;;;;5060563;28;24429;-46
2022/09/29 04:23:42;;;;;;;5.40;5.00;;;;;;;;;;5051611;28;24422;-46
2022/09/29 04:26:08;;;;;;;5.03;4.73;;;;;;;;;;5058477;28;24972;-46
2022/09/29 04:28:34;;;;;;;5.17;4.87;;;;;;;;;;5061052;28;24430;-47
2022/09/29 04:30:59;;;;;;;5.10;4.70;;;;;;;;;;5059340;28;24971;-46
2022/09/29 04:33:24;;;;;;;4.90;4.60;;;;;;;;;;5058953;28;24464;-45
2022/09/29 04:35:50;;;;;;;4.80;4.50;;;;;;;;;;5053731;28;24542;-46
2022/09/29 04:38:15;;;;;;;4.90;4.60;;;;;;;;;;5058263;28;25003;-47
2022/09/29 04:40:40;;;;;;;4.60;4.30;;;;;;;;;;5062818;28;24427;-47
2022/09/29 04:43:05;;;;;;;5.13;4.83;;;;;;;;;;5048005;28;24996;-47
2022/09/29 04:45:31;;;;;;;5.60;5.20;;;;;;;;;;5064077;28;24457;-46
2022/09/29 04:47:56;;;;;;;4.97;4.67;;;;;;;;;;5061784;28;24419;-47
2022/09/29 04:50:22;;;;;;;5.30;5.00;;;;;;;;;;5062087;28;24510;-46
2022/09/29 04:52:47;;;;;;;5.72;5.32;;;;;;;;;;5062351;28;25152;-46
2022/09/29 04:55:12;;;;;;;5.40;5.00;;;;;;;;;;5060529;28;24419;-46
2022/09/29 04:57:37;;;;;;;5.70;5.30;;;;;;;;;;5061193;28;24429;-47
2022/09/29 05:00:04;;;;;;;5.00;4.70;;;;;;;;;;5055689;28;24733;-46
2022/09/29 05:02:29;;;;;;;6.43;5.93;;;;;;;;;;5051972;28;24436;-46
2022/09/29 05:04:54;;;;;;;6.70;6.20;;;;;;;;;;5060568;28;24734;-47
2022/09/29 05:07:20;;;;;;;6.00;5.60;;;;;;;;;;5054044;28;24434;-46
2022/09/29 05:09:45;;;;;;;5.80;5.40;;;;;;;;;;5059031;28;24538;-47
2022/09/29 05:12:10;;;;;;;5.20;4.80;;;;;;;;;;5055394;28;24868;-47
2022/09/29 05:14:35;;;;;;;5.77;5.37;;;;;;;;;;5058975;28;25226;-47
2022/09/29 05:17:00;;;;;;;6.00;5.50;;;;;;;;;;5053284;28;24488;-47
2022/09/29 05:19:25;;;;;;;5.80;5.40;;;;;;;;;;5051926;28;24857;-47
2022/09/29 05:21:51;;;;;;;5.90;5.50;;;;;;;;;;5053885;28;26538;-47
2022/09/29 05:24:16;;;;;;;6.10;5.60;;;;;;;;;;5054998;28;24491;-46
2022/09/29 05:26:41;;;;;;;5.50;5.10;;;;;;;;;;5058410;28;24471;-46
2022/09/29 05:29:06;;;;;;;5.70;5.30;;;;;;;;;;5066964;28;24510;-46
2022/09/29 05:31:31;;;;;;;6.30;5.80;;;;;;;;;;5066736;28;24445;-46
2022/09/29 05:33:57;;;;;;;5.90;5.50;;;;;;;;;;5067088;28;24453;-46
2022/09/29 05:36:22;;;;;;;6.10;5.60;;;;;;;;;;5063436;28;25089;-47
2022/09/29 05:38:47;;;;;;;6.47;5.97;;;;;;;;;;5064852;28;24411;-46
2022/09/29 05:41:15;;;;;;;6.60;6.00;;;;;;;;;;5062161;28;24500;-53
2022/09/29 05:43:41;;;;;;;6.50;6.00;;;;;;;;;;5062100;28;24423;-47
2022/09/29 05:46:07;;;;;;;6.72;6.13;;;;;;;;;;5064159;28;24983;-46
2022/09/29 05:48:33;;;;;;;6.10;5.60;;;;;;;;;;5065231;28;24484;-46
2022/09/29 05:50:59;;;;;;;7.03;6.50;;;;;;;;;;5064155;28;25034;-45
2022/09/29 05:53:25;;;;;;;6.25;5.82;;;;;;;;;;5066707;28;24423;-46
2022/09/29 05:55:50;;;;;;;7.30;6.70;;;;;;;;;;5055863;28;24419;-45
2022/09/29 05:58:15;;;;;;;7.13;6.63;;;;;;;;;;5061647;28;24507;-45
2022/09/29 06:00:40;;;;;;;6.90;6.40;;;;;;;;;;5066918;28;24585;-47
2022/09/29 06:03:06;;;;;;;6.27;5.80;;;;;;;;;;5065587;28;24414;-48
2022/09/29 06:05:31;;;;;;;5.80;5.40;;;;;;;;;;5063307;28;24980;-46
2022/09/29 06:07:56;;;;;;;5.43;5.03;;;;;;;;;;5053088;28;24434;-46
2022/09/29 06:10:21;;;;;;;6.40;5.90;;;;;;;;;;5051940;28;24503;-46
2022/09/29 06:12:47;;;;;;;6.18;5.78;;;;;;;;;;5064257;28;25044;-46
2022/09/29 06:15:12;;;;;;;6.20;5.80;;;;;;;;;;5066025;28;24426;-46
2022/09/29 06:17:37;;;;;;;6.70;6.20;;;;;;;;;;5063015;28;24816;-47
2022/09/29 06:20:03;;;;;;;5.70;5.30;;;;;;;;;;5060403;28;25299;-46
2022/09/29 06:22:28;;;;;;;5.95;5.55;;;;;;;;;;5056379;28;24442;-46
2022/09/29 06:24:54;;;;;;;6.40;5.90;;;;;;;;;;5059809;28;24808;-46
2022/09/29 06:27:19;;;;;;;5.10;4.80;;;;;;;;;;5063239;28;24476;-46
2022/09/29 06:29:44;;;;;;;6.20;5.70;;;;;;;;;;5050909;28;24540;-47
2022/09/29 06:32:09;;;;;;;7.40;6.80;;;;;;;;;;5045701;28;24443;-46
2022/09/29 06:37:33;;;;;;;6.33;5.73;;;;;;;;;;5055234;28;24504;-47
2022/09/29 06:37:38;;;;;;;6.43;5.93;;;;;;;;;;5066491;28;24446;-47
2022/09/29 06:40:10;;;;;;;7.03;6.53;;;;;;;;;;5066527;28;24979;-45
2022/09/29 06:42:35;;;;;;;7.25;6.65;;;;;;;;;;5065576;28;24410;-47
2022/09/29 06:45:00;;;;;;;7.20;6.70;;;;;;;;;;5065815;28;24414;-46
2022/09/29 06:47:25;;;;;;;7.23;6.70;;;;;;;;;;5065066;28;24383;-46
2022/09/29 06:49:51;;;;;;;7.63;7.03;;;;;;;;;;5058850;28;24591;-46
2022/09/29 06:52:16;;;;;;;7.20;6.67;;;;;;;;;;5052151;28;24981;-48
2022/09/29 06:54:41;;;;;;;7.30;6.80;;;;;;;;;;5056164;28;24419;-47
2022/09/29 06:57:08;;;;;;;8.50;7.80;;;;;;;;;;5048312;28;24415;-47
2022/09/29 06:59:33;;;;;;;7.20;6.70;;;;;;;;;;5044592;28;24391;-45
2022/09/29 07:01:58;;;;;;;7.50;7.00;;;;;;;;;;5061704;28;24418;-46
2022/09/29 07:04:23;;;;;;;8.43;7.73;;;;;;;;;;5064732;28;24423;-48
2022/09/29 07:06:49;;;;;;;7.65;7.05;;;;;;;;;;5065565;28;24475;-47
2022/09/29 07:09:17;;;;;;;7.80;7.20;;;;;;;;;;5069072;28;24473;-45
2022/09/29 07:11:45;;;;;;;7.00;6.50;;;;;;;;;;5068552;28;25043;-48
2022/09/29 07:14:11;;;;;;;8.40;7.70;;;;;;;;;;5069606;28;24486;-46
2022/09/29 07:16:36;;;;;;;7.40;6.80;;;;;;;;;;5069657;28;24399;-47
2022/09/29 07:19:02;;;;;;;7.43;6.82;;;;;;;;;;5069261;28;24390;-45
2022/09/29 07:21:27;;;;;;;8.30;7.60;;;;;;;;;;5068271;28;24969;-47
2022/09/29 07:23:52;;;;;;;7.50;6.90;;;;;;;;;;5069405;28;24470;-46
2022/09/29 07:26:17;;;;;;;7.23;6.73;;;;;;;;;;5069775;28;24749;-46
2022/09/29 07:28:43;;;;;;;6.90;6.40;;;;;;;;;;5069372;28;25142;-47
2022/09/29 07:31:12;;;;;;;7.50;6.90;;;;;;;;;;5068105;28;24971;-46
2022/09/29 07:33:37;;;;;;;6.70;6.20;;;;;;;;;;5068955;28;24491;-46
2022/09/29 07:36:02;;;;;;;7.50;6.80;;;;;;;;;;5069139;28;24941;-46
2022/09/29 07:38:28;;;;;;;8.60;7.80;;;;;;;;;;5069080;28;24482;-46
2022/09/29 07:40:54;;;;;;;7.80;7.15;;;;;;;;;;5068763;28;24422;-46
2022/09/29 07:43:19;;;;;;;6.93;6.43;;;;;;;;;;5067110;28;24395;-47
2022/09/29 07:45:48;;;;;;;6.80;6.30;;;;;;;;;;5068891;28;24681;-47
2022/09/29 07:48:14;;;;;;;7.13;6.63;;;;;;;;;;5069202;28;24476;-47
2022/09/29 07:50:39;;;;;;;7.00;6.50;;;;;;;;;;5068310;28;24430;-47
2022/09/29 07:53:04;;;;;;;7.85;7.25;;;;;;;;;;5068411;28;24425;-47
2022/09/29 07:55:29;;;;;;;6.60;6.10;;;;;;;;;;5068884;28;24782;-47
2022/09/29 07:57:55;;;;;;;6.90;6.40;;;;;;;;;;5066437;28;24422;-47
2022/09/29 08:00:20;;;;;;;6.60;6.10;;;;;;;;;;5066877;28;24415;-48
2022/09/29 08:02:46;;;;;;;6.73;6.23;;;;;;;;;;5068203;28;24393;-46
2022/09/29 08:05:11;;;;;;;6.50;6.00;;;;;;;;;;5068604;28;24386;-46
2022/09/29 08:07:36;;;;;;;6.47;5.97;;;;;;;;;;5068902;28;24401;-47
2022/09/29 08:10:01;;;;;;;6.10;5.70;;;;;;;;;;5067809;28;24480;-47
2022/09/29 08:12:27;;;;;;;6.43;5.97;;;;;;;;;;5067239;28;24445;-47
2022/09/29 08:14:52;;;;;;;7.87;7.27;;;;;;;;;;5068386;28;24426;-45
2022/09/29 08:17:17;;;;;;;6.50;6.00;;;;;;;;;;5065745;28;24413;-46
2022/09/29 08:19:42;;;;;;;6.63;6.03;;;;;;;;;;5067834;28;24430;-47
2022/09/29 08:22:07;;;;;;;6.47;5.88;;;;;;;;;;5067895;28;24675;-47
2022/09/29 08:24:35;;;;;;;6.00;5.50;;;;;;;;;;5068440;28;24383;-46
2022/09/29 08:27:01;;;;;;;5.70;5.30;;;;;;;;;;5067391;28;24472;-47
2022/09/29 08:29:26;;;;;;;7.10;6.50;;;;;;;;;;5064803;28;24418;-46
2022/09/29 08:31:52;;;;;;;6.20;5.70;;;;;;;;;;5066812;28;24519;-47
2022/09/29 08:34:18;;;;;;;6.40;5.90;;;;;;;;;;5065674;28;24960;-47
2022/09/29 08:36:43;;;;;;;6.80;6.30;;;;;;;;;;5067961;28;24476;-45
2022/09/29 08:39:09;;;;;;;6.40;5.90;;;;;;;;;;5067983;28;24967;-46
2022/09/29 08:41:51;;;;;;;6.57;6.07;;;;;;;;;;5068047;28;24399;-45
2022/09/29 08:44:27;;;;;;;7.13;6.53;;;;;;;;;;5065761;28;24514;-46
2022/09/29 08:46:55;;;;;;;6.28;5.78;;;;;;;;;;5067543;28;24414;-47
2022/09/29 08:49:27;;;;;;;6.35;5.85;;;;;;;;;;5068068;28;24401;-46
2022/09/29 08:51:55;;;;;;;6.00;5.50;;;;;;;;;;5067529;28;24411;-47
2022/09/29 08:54:26;;;;;;;5.90;5.40;;;;;;;;;;5066765;28;24423;-46
2022/09/29 08:56:51;;;;;;;5.93;5.43;;;;;;;;;;5067150;28;24476;-47
2022/09/29 08:59:17;;;;;;;6.70;6.20;;;;;;;;;;5067796;28;24383;-46
2022/09/29 09:02:01;;;;;;;7.00;6.50;;;;;;;;;;5067592;28;24421;-47
2022/09/29 09:04:34;;;;;;;7.72;7.13;;;;;;;;;;5065435;28;24526;-46
2022/09/29 09:07:15;;;;;;;6.93;6.33;;;;;;;;;;5066928;28;24457;-47
2022/09/29 09:09:40;;;;;;;6.60;6.10;;;;;;;;;;5067461;28;24391;-46
2022/09/29 09:12:09;;;;;;;6.70;6.20;;;;;;;;;;5066898;28;24429;-47
2022/09/29 09:14:53;;;;;;;7.47;6.93;;;;;;;;;;5066783;28;24449;-47
2022/09/29 09:17:26;;;;;;;6.40;5.90;;;;;;;;;;5049709;28;24540;-46
2022/09/29 09:20:04;;;;;;;7.25;6.65;;;;;;;;;;5066671;28;25287;-46
2022/09/29 09:22:35;;;;;;;7.30;6.80;;;;;;;;;;5066883;28;24406;-46
2022/09/29 09:25:10;;;;;;;7.90;7.30;;;;;;;;;;5067310;28;25216;-47
2022/09/29 09:27:37;;;;;;;7.65;7.05;;;;;;;;;;5066106;28;24840;-47
2022/09/29 09:30:05;;;;;;;7.50;6.90;;;;;;;;;;5066300;28;24514;-47
2022/09/29 09:32:32;;;;;;;6.72;6.22;;;;;;;;;;5066570;28;24422;-47
2022/09/29 09:35:11;;;;;;;6.95;6.43;;;;;;;;;;5066952;28;24524;-46
2022/09/29 09:37:38;;;;;;;7.72;7.07;;;;;;;;;;5067117;28;24385;-46
2022/09/29 09:40:10;;;;;;;7.88;7.18;;;;;;;;;;5066174;28;24434;-46
2022/09/29 09:42:38;;;;;;;7.93;7.30;;;;;;;;;;5066581;28;25353;-47
2022/09/29 09:45:06;;;;;;;6.67;6.17;;;;;;;;;;5066855;28;24535;-47
2022/09/29 09:47:39;;;;;;;7.70;7.10;;;;;;;;;;5066591;28;24987;-48
2022/09/29 09:50:12;;;;;;;6.68;6.18;;;;;;;;;;5064798;28;24492;-47
2022/09/29 09:52:41;;;;;;;5.78;5.38;;;;;;;;;;5066869;28;24465;-46
2022/09/29 09:55:09;;;;;;;5.30;4.90;;;;;;;;;;5066547;28;24479;-47
2022/09/29 09:57:53;;;;;;;4.90;4.50;;;;;;;;;;5066971;28;24402;-48
2022/09/29 10:00:24;;;;;;;4.90;4.60;;;;;;;;;;5066103;28;24419;-47
2022/09/29 10:02:50;;;;;;;6.15;5.75;;;;;;;;;;5066059;28;24971;-47
2022/09/29 10:05:17;;;;;;;6.60;6.10;;;;;;;;;;5066927;28;24845;-47
2022/09/29 10:07:43;;;;;;;6.00;5.55;;;;;;;;;;5066727;28;24394;-46
2022/09/29 10:10:16;;;;;;;6.00;5.60;;;;;;;;;;5065172;28;24473;-47
2022/09/29 10:12:41;;;;;;;5.80;5.40;;;;;;;;;;5066509;28;24487;-47
2022/09/29 10:15:26;;;;;;;4.80;4.50;;;;;;;;;;5066499;28;24796;-47
2022/09/29 10:18:00;;;;;;;4.50;4.20;;;;;;;;;;5066257;28;24769;-49
2022/09/29 10:20:32;;;;;;;4.40;4.00;;;;;;;;;;5065774;28;24427;-47
2022/09/29 10:23:17;;;;;;;3.50;3.30;;;;;;;;;;5066197;28;24414;-47
2022/09/29 10:25:49;;;;;;;4.07;3.78;;;;;;;;;;5066654;28;24804;-46
2022/09/29 10:28:15;;;;;;;3.80;3.50;;;;;;;;;;5066315;28;24406;-48
2022/09/29 10:30:41;;;;;;;4.57;4.23;;;;;;;;;;5065234;28;25006;-47
2022/09/29 10:33:10;;;;;;;3.97;3.67;;;;;;;;;;5061681;28;24524;-47
2022/09/29 10:35:37;;;;;;;3.75;3.55;;;;;;;;;;5064442;28;24505;-48
2022/09/29 10:38:16;;;;;;;3.40;3.17;;;;;;;;;;5066140;28;24429;-48
2022/09/29 10:41:08;;;;;;;3.85;3.53;;;;;;;;;;5065972;28;25020;-49
2022/09/29 10:43:34;;;;;;;3.50;3.30;;;;;;;;;;5066995;28;24509;-47
2022/09/29 10:45:59;;;;;;;3.00;2.80;;;;;;;;;;5069944;28;24494;-47
2022/09/29 10:48:25;;;;;;;3.70;3.50;;;;;;;;;;5069917;28;24475;-47
2022/09/29 10:51:13;;;;;;;4.50;4.20;;;;;;;;;;5069654;28;24417;-45
2022/09/29 10:53:39;;;;;;;4.40;4.10;;;;;;;;;;5068818;28;24435;-47
2022/09/29 10:56:26;;;;;;;3.67;3.47;;;;;;;;;;5069690;28;24391;-48
2022/09/29 10:58:52;;;;;;;3.42;3.22;;;;;;;;;;5069725;28;24398;-47
2022/09/29 11:01:18;;;;;;;3.50;3.30;;;;;;;;;;5069773;28;24425;-46
2022/09/29 11:03:48;;;;;;;3.40;3.20;;;;;;;;;;5069465;28;24952;-48
2022/09/29 11:06:13;;;;;;;3.50;3.30;;;;;;;;;;5069292;28;24391;-47
2022/09/29 11:08:54;;;;;;;3.40;3.20;;;;;;;;;;5069702;28;24401;-46
2022/09/29 11:11:21;;;;;;;2.50;2.40;;;;;;;;;;5069306;28;24504;-47
2022/09/29 11:13:46;;;;;;;2.90;2.70;;;;;;;;;;5069231;28;24548;-48
2022/09/29 11:16:16;;;;;;;2.30;2.20;;;;;;;;;;5069434;28;24491;-47
2022/09/29 11:18:43;;;;;;;3.10;2.90;;;;;;;;;;5069485;28;24411;-47
2022/09/29 11:21:08;;;;;;;2.40;2.30;;;;;;;;;;5068889;28;24787;-47
2022/09/29 11:23:42;;;;;;;2.30;2.20;;;;;;;;;;5069158;28;24985;-48
2022/09/29 11:26:23;;;;;;;2.38;2.28;;;;;;;;;;5069005;28;24409;-48
2022/09/29 11:29:00;;;;;;;2.30;2.20;;;;;;;;;;5068935;28;24476;-47
2022/09/29 11:31:39;;;;;;;2.50;2.40;;;;;;;;;;5069082;28;24978;-48
2022/09/29 11:34:23;;;;;;;2.67;2.50;;;;;;;;;;5069063;28;24405;-48
2022/09/29 11:36:48;;;;;;;2.80;2.60;;;;;;;;;;5068657;28;24543;-50
2022/09/29 11:39:29;;;;;;;2.83;2.67;;;;;;;;;;5068868;28;24378;-48
2022/09/29 11:41:59;;;;;;;3.10;2.90;;;;;;;;;;5069087;28;24391;-48
2022/09/29 11:44:24;;;;;;;2.50;2.40;;;;;;;;;;5068788;28;24410;-49
2022/09/29 11:47:09;;;;;;;2.70;2.50;;;;;;;;;;5068920;28;24391;-47
2022/09/29 11:49:55;;;;;;;2.80;2.60;;;;;;;;;;5057659;28;24501;-47
2022/09/29 11:52:20;;;;;;;2.60;2.40;;;;;;;;;;5068662;28;25052;-47
2022/09/29 11:55:04;;;;;;;3.00;2.80;;;;;;;;;;5067988;28;24976;-48
2022/09/29 11:57:35;;;;;;;3.00;2.80;;;;;;;;;;5068328;28;24390;-48
2022/09/29 12:00:00;;;;;;;3.80;3.33;;;;;;;;;;5068640;28;24473;-47
2022/09/29 12:02:31;;;;;;;3.33;3.13;;;;;;;;;;5068346;28;24453;-47
2022/09/29 12:05:23;;;;;;;3.20;2.90;;;;;;;;;;5068405;28;24753;-47
2022/09/29 12:07:57;;;;;;;3.00;2.80;;;;;;;;;;5065111;28;24407;-48
2022/09/29 12:10:37;;;;;;;3.28;3.08;;;;;;;;;;5067912;28;24437;-54
2022/09/29 12:13:08;;;;;;;3.30;3.10;;;;;;;;;;5068029;28;24417;-49
2022/09/29 12:15:34;;;;;;;3.20;2.90;;;;;;;;;;5068256;28;24490;-47
2022/09/29 12:18:02;;;;;;;3.10;2.90;;;;;;;;;;5068210;28;24478;-48
2022/09/29 12:20:33;;;;;;;2.65;2.50;;;;;;;;;;5067734;28;24921;-47
2022/09/29 12:23:00;;;;;;;2.38;2.28;;;;;;;;;;5067944;28;24441;-48
2022/09/29 12:25:27;;;;;;;3.03;2.83;;;;;;;;;;5067476;28;24996;-49
2022/09/29 12:27:55;;;;;;;2.75;2.55;;;;;;;;;;5068003;28;25015;-48
2022/09/29 12:30:28;;;;;;;2.70;2.50;;;;;;;;;;5067941;28;24467;-48
2022/09/29 12:32:59;;;;;;;2.97;2.78;;;;;;;;;;5067848;28;24488;-48
2022/09/29 12:35:29;;;;;;;2.65;2.45;;;;;;;;;;5067328;28;24540;-47
2022/09/29 12:37:58;;;;;;;2.75;2.55;;;;;;;;;;5067489;28;24473;-47
2022/09/29 12:40:31;;;;;;;2.75;2.55;;;;;;;;;;5067550;28;24924;-47
2022/09/29 12:43:14;;;;;;;2.60;2.50;;;;;;;;;;5067707;28;24500;-48
2022/09/29 12:45:47;;;;;;;2.70;2.50;;;;;;;;;;5067539;28;24941;-47
2022/09/29 12:48:26;;;;;;;2.70;2.50;;;;;;;;;;5067110;28;24486;-46
2022/09/29 12:51:08;;;;;;;3.50;3.30;;;;;;;;;;5067615;28;24418;-48
2022/09/29 12:53:36;;;;;;;2.60;2.50;;;;;;;;;;5067370;28;24414;-48
2022/09/29 12:56:05;;;;;;;3.60;3.40;;;;;;;;;;5067345;28;24853;-47
2022/09/29 12:58:52;;;;;;;2.70;2.50;;;;;;;;;;5067303;28;24453;-47
2022/09/29 13:01:22;;;;;;;2.70;2.50;;;;;;;;;;5067453;28;24387;-48
2022/09/29 13:03:50;;;;;;;2.13;1.92;;;;;;;;;;5066852;28;24445;-47
2022/09/29 13:06:38;;;;;;;2.10;2.00;;;;;;;;;;5066422;28;24407;-48
2022/09/29 13:09:03;;;;;;;2.60;2.40;;;;;;;;;;5067065;28;24469;-46
2022/09/29 13:11:32;;;;;;;2.22;2.13;;;;;;;;;;5067018;28;24399;-46
2022/09/29 13:14:19;;;;;;;2.60;2.50;;;;;;;;;;5066912;28;24961;-46
2022/09/29 13:16:58;;;;;;;2.10;2.00;;;;;;;;;;5066979;28;24387;-46
2022/09/29 13:19:49;;;;;;;2.83;2.63;;;;;;;;;;5066591;28;24797;-46
2022/09/29 13:22:33;;;;;;;2.50;2.40;;;;;;;;;;5067072;28;24407;-45
2022/09/29 13:25:18;;;;;;;2.50;2.30;;;;;;;;;;5064841;28;24430;-47
2022/09/29 13:27:44;;;;;;;2.80;2.60;;;;;;;;;;5066860;28;24402;-46
2022/09/29 13:30:13;;;;;;;2.30;2.20;;;;;;;;;;5066696;28;24395;-46
2022/09/29 13:32:41;;;;;;;2.40;2.20;;;;;;;;;;5067049;28;24418;-46
2022/09/29 13:35:11;;;;;;;2.50;2.30;;;;;;;;;;5066467;28;24471;-46
2022/09/29 13:37:45;;;;;;;2.78;2.58;;;;;;;;;;5067049;28;24406;-47
2022/09/29 13:40:17;;;;;;;2.70;2.50;;;;;;;;;;5065929;28;24409;-47
2022/09/29 13:42:43;;;;;;;3.60;3.40;;;;;;;;;;5061746;28;25136;-48
2022/09/29 13:45:18;;;;;;;2.63;2.50;;;;;;;;;;5064319;28;25013;-46
2022/09/29 13:47:47;;;;;;;2.67;2.47;;;;;;;;;;5064035;28;24474;-47
2022/09/29 13:50:30;;;;;;;2.60;2.40;;;;;;;;;;5067018;28;24410;-47
2022/09/29 13:53:15;;;;;;;2.60;2.40;;;;;;;;;;5065024;28;25167;-48
2022/09/29 13:55:48;;;;;;;2.83;2.63;;;;;;;;;;5062807;28;24437;-47
2022/09/29 13:58:21;;;;;;;2.60;2.50;;;;;;;;;;5060208;28;24832;-47
2022/09/29 14:00:46;;;;;;;2.90;2.70;;;;;;;;;;5053822;28;25114;-47
2022/09/29 14:03:21;;;;;;;3.37;3.07;;;;;;;;;;5059232;28;24502;-48
2022/09/29 14:05:47;;;;;;;2.90;2.70;;;;;;;;;;5053336;28;25160;-48
2022/09/29 14:08:12;;;;;;;3.10;2.90;;;;;;;;;;5042932;28;24443;-47
2022/09/29 14:10:39;;;;;;;2.67;2.47;;;;;;;;;;5047508;28;24437;-48
2022/09/29 14:13:26;;;;;;;3.67;3.38;;;;;;;;;;5060733;28;24441;-48
2022/09/29 14:16:00;;;;;;;3.27;3.07;;;;;;;;;;5051742;28;24430;-48
2022/09/29 14:18:26;;;;;;;3.95;3.65;;;;;;;;;;5051123;28;24824;-49
2022/09/29 14:21:02;;;;;;;3.38;3.17;;;;;;;;;;5059143;28;24911;-48
2022/09/29 14:23:43;;;;;;;2.63;2.42;;;;;;;;;;5047289;28;24490;-49
2022/09/29 14:26:28;;;;;;;3.30;3.00;;;;;;;;;;5048051;28;24399;-49
2022/09/29 14:28:55;;;;;;;3.97;3.67;;;;;;;;;;5066486;28;24998;-47
2022/09/29 14:31:21;;;;;;;2.80;2.60;;;;;;;;;;5065432;28;24442;-48
2022/09/29 14:33:48;;;;;;;3.10;2.90;;;;;;;;;;5067149;28;24457;-48
2022/09/29 14:36:16;;;;;;;3.20;2.83;;;;;;;;;;5051654;28;24807;-48
2022/09/29 14:38:45;;;;;;;3.40;3.03;;;;;;;;;;5065638;28;24450;-49
2022/09/29 14:41:10;;;;;;;3.90;3.60;;;;;;;;;;5061977;28;24423;-48
2022/09/29 14:43:43;;;;;;;3.13;2.92;;;;;;;;;;5066540;28;24402;-48
2022/09/29 14:52:03;;;;;;;3.30;3.00;;;;;;;;;;5064810;28;24618;-47
2022/09/29 14:54:42;;;;;;;3.95;3.55;;;;;;;;;;5056245;28;24411;-48
2022/09/29 14:57:17;;;;;;;4.27;3.30;;;;;;;;;;5046552;28;24479;-48
2022/09/29 14:59:42;;;;;;;3.95;3.65;;;;;;;;;;5066526;28;24387;-47
2022/09/29 15:02:16;;;;;;;3.80;3.50;;;;;;;;;;5059906;28;24991;-48